createdAt,value
2022-08-27T00:00:49.791Z,101282.28
2022-08-27T00:02:22.732Z,101278.31
2022-08-27T00:03:54.689Z,101281.53
2022-08-27T00:05:26.554Z,101282.69
2022-08-27T00:06:58.530Z,101281.84
2022-08-27T00:08:31.042Z,101287.28
2022-08-27T00:10:02.736Z,101278.84
2022-08-27T00:11:34.766Z,101284.88
2022-08-27T00:13:06.305Z,101284.16
2022-08-27T00:14:38.717Z,101285.25
2022-08-27T00:16:11.369Z,101277.22
2022-08-27T00:17:45.267Z,101274.97
2022-08-27T00:19:17.143Z,101282.03
2022-08-27T00:20:48.653Z,101276.06
2022-08-27T00:22:20.163Z,101275.19
2022-08-27T00:23:51.779Z,101278.19
2022-08-27T00:25:23.650Z,101274.97
2022-08-27T00:26:55.165Z,101270.19
2022-08-27T00:28:26.978Z,101271.34
2022-08-27T00:29:58.585Z,101274.69
2022-08-27T00:31:30.209Z,101276.69
2022-08-27T00:33:04.305Z,101272.44
2022-08-27T00:34:36.031Z,101273.16
2022-08-27T00:36:07.895Z,101276.50
2022-08-27T00:37:39.518Z,101271.06
2022-08-27T00:39:11.055Z,101272.47
2022-08-27T00:40:43.234Z,101274.38
2022-08-27T00:42:15.351Z,101272.38
2022-08-27T00:43:48.320Z,101266.94
2022-08-27T00:45:21.610Z,101271.19
2022-08-27T00:46:55.534Z,101277.72
2022-08-27T00:48:29.918Z,101278.69
2022-08-27T00:50:04.143Z,101274.38
2022-08-27T00:51:37.048Z,101267.41
2022-08-27T00:53:11.041Z,101277.78
2022-08-27T00:54:42.609Z,101274.47
2022-08-27T00:56:16.305Z,101268.56
2022-08-27T00:57:50.309Z,101272.75
2022-08-27T00:59:23.119Z,101273.25
2022-08-27T01:00:55.200Z,101275.34
2022-08-27T01:02:30.569Z,101277.34
2022-08-27T01:04:05.889Z,101275.63
2022-08-27T01:05:38.472Z,101274.47
2022-08-27T01:07:10.756Z,101269.22
2022-08-27T01:08:44.148Z,101267.53
2022-08-27T01:10:18.470Z,101271.13
2022-08-27T01:11:50.712Z,101262.28
2022-08-27T01:13:54.434Z,101260.25
2022-08-27T01:15:19.976Z,101266.00
2022-08-27T01:16:54.275Z,101269.41
2022-08-27T01:18:26.065Z,101271.53
2022-08-27T01:20:02.160Z,101261.84
2022-08-27T01:21:36.166Z,101264.09
2022-08-27T01:23:11.889Z,101258.94
2022-08-27T01:24:46.635Z,101263.66
2022-08-27T01:26:20.548Z,101259.19
2022-08-27T01:27:52.989Z,101263.53
2022-08-27T01:29:24.532Z,101262.56
2022-08-27T01:30:56.049Z,101253.59
2022-08-27T01:32:29.133Z,101254.25
2022-08-27T01:34:02.449Z,101252.84
2022-08-27T01:35:34.156Z,101253.94
2022-08-27T01:37:10.738Z,101251.47
2022-08-27T01:38:42.280Z,101255.00
2022-08-27T01:40:16.838Z,101256.50
2022-08-27T01:41:48.680Z,101250.19
2022-08-27T01:43:23.939Z,101245.06
2022-08-27T01:44:56.903Z,101241.53
2022-08-27T01:46:28.596Z,101245.81
2022-08-27T01:48:01.105Z,101236.09
2022-08-27T01:49:33.093Z,101236.59
2022-08-27T01:51:04.714Z,101237.16
2022-08-27T01:52:36.335Z,101231.81
2022-08-27T01:54:07.886Z,101237.06
2022-08-27T01:55:40.815Z,101227.22
2022-08-27T01:57:22.007Z,101232.22
2022-08-27T01:58:56.889Z,101232.69
2022-08-27T02:00:29.550Z,101236.31
2022-08-27T02:02:02.731Z,101235.00
2022-08-27T02:03:36.468Z,101231.81
2022-08-27T02:05:08.411Z,101232.44
2022-08-27T02:06:40.316Z,101236.50
2022-08-27T02:08:12.817Z,101226.47
2022-08-27T02:09:44.389Z,101231.91
2022-08-27T02:11:17.269Z,101225.63
2022-08-27T02:12:49.520Z,101234.59
2022-08-27T02:14:21.075Z,101237.66
2022-08-27T02:15:52.782Z,101238.63
2022-08-27T02:17:24.384Z,101235.81
2022-08-27T02:18:56.060Z,101241.38
2022-08-27T02:20:29.465Z,101243.69
2022-08-27T02:22:01.120Z,101242.09
2022-08-27T02:23:33.161Z,101243.69
2022-08-27T02:25:06.681Z,101232.41
2022-08-27T02:26:43.218Z,101233.34
2022-08-27T02:28:14.783Z,101233.06
2022-08-27T02:29:47.787Z,101231.69
2022-08-27T02:31:21.893Z,101228.78
2022-08-27T02:32:53.433Z,101233.06
2022-08-27T02:34:24.971Z,101238.50
2022-08-27T02:35:56.492Z,101235.16
2022-08-27T02:37:28.727Z,101236.69
2022-08-27T02:39:00.956Z,101231.25
2022-08-27T02:40:32.707Z,101231.53
2022-08-27T02:42:05.760Z,101234.53
2022-08-27T02:43:37.580Z,101234.00
2022-08-27T02:45:09.244Z,101234.19
2022-08-27T02:46:41.548Z,101227.88
2022-08-27T02:48:13.251Z,101231.13
2022-08-27T02:49:44.815Z,101225.78
2022-08-27T02:51:16.301Z,101224.06
2022-08-27T02:52:47.883Z,101227.22
2022-08-27T02:54:20.032Z,101221.78
2022-08-27T02:55:52.224Z,101220.41
2022-08-27T02:57:25.113Z,101217.63
2022-08-27T02:58:56.720Z,101229.50
2022-08-27T03:00:28.965Z,101220.50
2022-08-27T03:02:01.319Z,101220.59
2022-08-27T03:03:33.040Z,101219.09
2022-08-27T03:05:05.018Z,101221.50
2022-08-27T03:06:36.548Z,101217.88
2022-08-27T03:08:08.681Z,101221.41
2022-08-27T03:09:40.334Z,101210.16
2022-08-27T03:11:12.583Z,101208.53
2022-08-27T03:12:45.515Z,101205.88
2022-08-27T03:14:17.073Z,101212.53
2022-08-27T03:15:48.627Z,101211.34
2022-08-27T03:17:40.990Z,101206.72
2022-08-27T03:19:12.533Z,101214.63
2022-08-27T03:20:45.897Z,101206.59
2022-08-27T03:22:17.409Z,101204.13
2022-08-27T03:23:48.934Z,101206.31
2022-08-27T03:25:21.030Z,101213.75
2022-08-27T03:26:53.835Z,101208.31
2022-08-27T03:28:28.830Z,101213.38
2022-08-27T03:30:03.940Z,101218.59
2022-08-27T03:31:35.798Z,101210.38
2022-08-27T03:33:08.202Z,101220.19
2022-08-27T03:34:40.075Z,101223.28
2022-08-27T03:36:11.702Z,101214.63
2022-08-27T03:37:43.393Z,101226.25
2022-08-27T03:39:14.921Z,101219.59
2022-08-27T03:40:47.085Z,101212.91
2022-08-27T03:42:18.636Z,101212.16
2022-08-27T03:43:54.560Z,101217.78
2022-08-27T03:45:27.233Z,101217.16
2022-08-27T03:46:59.951Z,101215.84
2022-08-27T03:48:31.968Z,101209.09
2022-08-27T03:50:05.862Z,101210.25
2022-08-27T03:51:37.390Z,101217.19
2022-08-27T03:53:08.946Z,101207.28
2022-08-27T03:54:40.971Z,101214.97
2022-08-27T03:56:12.483Z,101198.50
2022-08-27T03:57:44.043Z,101209.06
2022-08-27T03:59:17.018Z,101213.94
2022-08-27T04:00:48.602Z,101216.78
2022-08-27T04:02:20.293Z,101209.97
2022-08-27T04:03:52.216Z,101219.16
2022-08-27T04:05:23.816Z,101205.94
2022-08-27T04:06:56.094Z,101209.53
2022-08-27T04:08:30.578Z,101218.69
2022-08-27T04:10:02.100Z,101213.59
2022-08-27T04:11:34.584Z,101224.63
2022-08-27T04:13:06.108Z,101227.19
2022-08-27T04:14:39.144Z,101222.16
2022-08-27T04:16:10.824Z,101240.53
2022-08-27T04:17:42.825Z,101222.06
2022-08-27T04:19:14.946Z,101228.06
2022-08-27T04:20:49.067Z,101229.19
2022-08-27T04:22:21.078Z,101231.69
2022-08-27T04:23:52.685Z,101232.97
2022-08-27T04:25:24.994Z,101237.34
2022-08-27T04:26:56.576Z,101234.69
2022-08-27T04:28:28.136Z,101239.38
2022-08-27T04:30:01.425Z,101245.16
2022-08-27T04:31:33.041Z,101233.75
2022-08-27T04:33:04.623Z,101240.03
2022-08-27T04:34:36.947Z,101243.44
2022-08-27T04:36:10.031Z,101242.31
2022-08-27T04:37:41.576Z,101242.66
2022-08-27T04:39:13.146Z,101249.59
2022-08-27T04:41:03.204Z,101249.06
2022-08-27T04:42:34.732Z,101244.97
2022-08-27T04:44:07.468Z,101247.63
2022-08-27T04:45:44.349Z,101251.72
2022-08-27T04:47:16.879Z,101255.44
2022-08-27T04:48:48.448Z,101252.31
2022-08-27T04:50:21.185Z,101253.94
2022-08-27T04:51:52.773Z,101263.72
2022-08-27T04:53:24.385Z,101253.00
2022-08-27T04:54:55.987Z,101261.94
2022-08-27T04:56:27.866Z,101266.34
2022-08-27T04:57:59.693Z,101261.94
2022-08-27T04:59:31.830Z,101258.06
2022-08-27T05:01:04.716Z,101257.00
2022-08-27T05:02:36.231Z,101266.72
2022-08-27T05:04:08.504Z,101260.66
2022-08-27T05:05:42.794Z,101260.84
2022-08-27T05:07:14.503Z,101273.00
2022-08-27T05:08:46.060Z,101280.03
2022-08-27T05:10:17.633Z,101272.72
2022-08-27T05:11:49.150Z,101278.53
2022-08-27T05:13:21.168Z,101279.59
2022-08-27T05:14:54.205Z,101279.28
2022-08-27T05:16:27.072Z,101285.28
2022-08-27T05:18:00.655Z,101283.03
2022-08-27T05:19:32.875Z,101284.16
2022-08-27T05:21:04.843Z,101284.81
2022-08-27T05:22:39.557Z,101278.13
2022-08-27T05:24:11.096Z,101277.94
2022-08-27T05:25:44.120Z,101290.50
2022-08-27T05:27:15.962Z,101286.53
2022-08-27T05:28:48.143Z,101288.25
2022-08-27T05:30:21.735Z,101278.72
2022-08-27T05:31:55.229Z,101283.38
2022-08-27T05:33:26.782Z,101288.34
2022-08-27T05:34:58.324Z,101283.78
2022-08-27T05:36:31.112Z,101283.56
2022-08-27T05:38:02.583Z,101282.91
2022-08-27T05:39:34.162Z,101282.88
2022-08-27T05:41:07.085Z,101285.13
2022-08-27T05:42:38.650Z,101281.66
2022-08-27T05:46:05.176Z,101279.34
2022-08-27T05:47:40.966Z,101283.44
2022-08-27T05:49:16.427Z,101281.72
2022-08-27T05:50:48.041Z,101277.13
2022-08-27T05:52:20.140Z,101290.16
2022-08-27T05:53:54.569Z,101286.69
2022-08-27T05:55:26.096Z,101290.06
2022-08-27T05:56:57.678Z,101284.06
2022-08-27T05:58:47.709Z,101291.38
2022-08-27T06:00:38.151Z,101288.28
2022-08-27T06:02:10.938Z,101282.97
2022-08-27T06:03:44.751Z,101275.63
2022-08-27T06:05:16.447Z,101278.66
2022-08-27T06:06:48.681Z,101289.22
2022-08-27T06:08:20.166Z,101283.97
2022-08-27T06:09:51.753Z,101282.97
2022-08-27T06:11:23.521Z,101278.44
2022-08-27T06:12:57.098Z,101276.44
2022-08-27T06:14:29.273Z,101281.97
2022-08-27T06:16:01.243Z,101284.22
2022-08-27T06:17:32.805Z,101288.72
2022-08-27T06:19:06.088Z,101286.06
2022-08-27T06:20:37.623Z,101293.31
2022-08-27T06:22:10.564Z,101282.97
2022-08-27T06:23:43.000Z,101289.56
2022-08-27T06:25:14.631Z,101292.03
2022-08-27T06:26:46.400Z,101281.25
2022-08-27T06:28:20.498Z,101290.13
2022-08-27T06:29:52.011Z,101289.25
2022-08-27T06:31:24.458Z,101282.59
2022-08-27T06:32:55.972Z,101286.22
2022-08-27T06:34:28.919Z,101282.13
2022-08-27T06:36:00.494Z,101279.91
2022-08-27T06:37:32.145Z,101295.41
2022-08-27T06:39:03.896Z,101291.28
2022-08-27T06:40:35.540Z,101298.56
2022-08-27T06:42:09.973Z,101298.78
2022-08-27T06:43:44.101Z,101292.56
2022-08-27T06:45:15.703Z,101297.72
2022-08-27T06:46:47.300Z,101291.84
2022-08-27T06:48:19.287Z,101297.63
2022-08-27T06:49:52.284Z,101302.97
2022-08-27T06:51:26.105Z,101289.09
2022-08-27T06:52:57.622Z,101291.34
2022-08-27T06:54:29.233Z,101298.88
2022-08-27T06:56:00.799Z,101285.31
2022-08-27T06:57:32.384Z,101290.13
2022-08-27T06:59:11.867Z,101290.50
2022-08-27T07:00:48.811Z,101283.78
2022-08-27T07:02:20.565Z,101292.69
2022-08-27T07:03:53.892Z,101291.09
2022-08-27T07:05:27.667Z,101293.75
2022-08-27T07:06:59.268Z,101289.81
2022-08-27T07:08:30.839Z,101290.66
2022-08-27T07:10:02.561Z,101286.19
2022-08-27T07:11:36.397Z,101291.28
2022-08-27T07:13:09.265Z,101285.75
2022-08-27T07:14:40.848Z,101285.34
2022-08-27T07:16:14.860Z,101288.63
2022-08-27T07:17:46.498Z,101284.44
2022-08-27T07:19:18.692Z,101282.72
2022-08-27T07:20:54.238Z,101286.16
2022-08-27T07:22:25.816Z,101279.75
2022-08-27T07:23:59.632Z,101285.94
2022-08-27T07:25:32.167Z,101280.16
2022-08-27T07:27:03.864Z,101280.81
2022-08-27T07:28:35.436Z,101287.34
2022-08-27T07:30:09.025Z,101285.84
2022-08-27T07:31:42.115Z,101284.56
2022-08-27T07:33:13.749Z,101293.75
2022-08-27T07:34:45.351Z,101290.69
2022-08-27T07:36:18.573Z,101289.59
2022-08-27T07:37:50.152Z,101295.28
2022-08-27T07:39:21.685Z,101295.47
2022-08-27T07:40:53.627Z,101297.03
2022-08-27T07:42:44.013Z,101296.44
2022-08-27T07:44:33.022Z,101295.38
2022-08-27T07:46:06.589Z,101291.31
2022-08-27T07:47:38.225Z,101297.28
2022-08-27T07:49:09.750Z,101293.22
2022-08-27T07:50:41.363Z,101297.28
2022-08-27T07:52:16.052Z,101294.94
2022-08-27T07:53:47.727Z,101304.75
2022-08-27T07:55:19.332Z,101302.84
2022-08-27T07:56:54.854Z,101297.84
2022-08-27T07:58:27.406Z,101301.03
2022-08-27T07:59:59.457Z,101302.94
2022-08-27T08:01:31.100Z,101308.63
2022-08-27T08:03:02.763Z,101301.66
2022-08-27T08:04:34.401Z,101306.06
2022-08-27T08:06:07.258Z,101308.41
2022-08-27T08:07:40.173Z,101309.59
2022-08-27T08:09:11.839Z,101311.72
2022-08-27T08:10:43.466Z,101303.69
2022-08-27T08:12:15.069Z,101305.00
2022-08-27T08:13:46.651Z,101303.81
2022-08-27T08:15:18.895Z,101302.84
2022-08-27T08:16:50.512Z,101302.63
2022-08-27T08:18:22.111Z,101312.66
2022-08-27T08:20:15.693Z,101310.00
2022-08-27T08:21:45.380Z,101305.84
2022-08-27T08:23:18.320Z,101313.66
2022-08-27T08:24:49.945Z,101310.97
2022-08-27T08:26:23.031Z,101314.19
2022-08-27T08:27:55.344Z,101315.97
2022-08-27T08:29:28.029Z,101316.50
2022-08-27T08:31:00.051Z,101312.13
2022-08-27T08:32:31.774Z,101318.44
2022-08-27T08:34:03.483Z,101320.94
2022-08-27T08:35:40.948Z,101319.72
2022-08-27T08:37:14.248Z,101334.06
2022-08-27T08:38:47.667Z,101324.22
2022-08-27T08:40:25.480Z,101325.19
2022-08-27T08:41:58.447Z,101325.53
2022-08-27T08:43:31.638Z,101321.44
2022-08-27T08:45:06.497Z,101324.22
2022-08-27T08:46:40.488Z,101329.25
2022-08-27T08:48:14.990Z,101331.59
2022-08-27T08:49:48.932Z,101333.53
2022-08-27T08:51:23.088Z,101322.41
2022-08-27T08:52:59.210Z,101327.84
2022-08-27T08:54:33.794Z,101328.72
2022-08-27T08:56:08.427Z,101330.09
2022-08-27T08:57:43.653Z,101336.41
2022-08-27T08:59:20.470Z,101327.94
2022-08-27T09:00:54.338Z,101336.94
2022-08-27T09:02:26.921Z,101333.00
2022-08-27T09:04:00.072Z,101333.75
2022-08-27T09:05:31.900Z,101342.84
2022-08-27T09:07:08.532Z,101341.09
2022-08-27T09:08:42.073Z,101338.66
2022-08-27T09:10:21.587Z,101342.53
2022-08-27T09:11:59.424Z,101342.84
2022-08-27T09:13:32.893Z,101344.78
2022-08-27T09:15:05.963Z,101342.75
2022-08-27T09:16:41.025Z,101343.25
2022-08-27T09:18:14.201Z,101351.94
2022-08-27T09:19:46.257Z,101348.41
2022-08-27T09:21:27.717Z,101342.97
2022-08-27T09:23:06.059Z,101342.63
2022-08-27T09:24:43.425Z,101342.41
2022-08-27T09:26:21.301Z,101347.88
2022-08-27T09:27:54.788Z,101350.28
2022-08-27T09:29:27.328Z,101345.94
2022-08-27T09:31:00.664Z,101343.38
2022-08-27T09:32:33.642Z,101354.59
2022-08-27T09:34:05.467Z,101350.28
2022-08-27T09:35:40.725Z,101336.97
2022-08-27T09:37:15.628Z,101341.44
2022-08-27T09:38:52.682Z,101344.13
2022-08-27T09:40:32.030Z,101338.44
2022-08-27T09:42:06.468Z,101346.03
2022-08-27T09:43:39.239Z,101341.56
2022-08-27T09:45:12.088Z,101344.13
2022-08-27T09:46:51.490Z,101339.19
2022-08-27T09:48:25.272Z,101337.94
2022-08-27T09:50:06.817Z,101340.25
2022-08-27T09:51:40.465Z,101346.66
2022-08-27T09:53:18.449Z,101344.00
2022-08-27T09:54:55.619Z,101345.00
2022-08-27T09:56:29.174Z,101343.47
2022-08-27T09:58:03.552Z,101349.69
2022-08-27T09:59:36.581Z,101351.50
2022-08-27T10:01:17.659Z,101350.44
2022-08-27T10:02:50.196Z,101353.53
2022-08-27T10:04:25.454Z,101349.81
2022-08-27T10:05:57.877Z,101347.84
2022-08-27T10:07:35.443Z,101352.03
2022-08-27T10:09:11.317Z,101347.75
2022-08-27T10:10:46.857Z,101349.25
2022-08-27T10:12:22.605Z,101355.31
2022-08-27T10:13:58.053Z,101350.66
2022-08-27T10:15:33.397Z,101350.34
2022-08-27T10:17:17.211Z,101345.25
2022-08-27T10:18:52.706Z,101349.09
2022-08-27T10:20:30.847Z,101347.94
2022-08-27T10:22:10.753Z,101348.91
2022-08-27T10:23:47.437Z,101352.31
2022-08-27T10:25:26.033Z,101349.69
2022-08-27T10:27:04.631Z,101349.69
2022-08-27T10:28:49.047Z,101349.06
2022-08-27T10:30:25.897Z,101349.63
2022-08-27T10:32:05.384Z,101351.19
2022-08-27T10:33:39.357Z,101350.63
2022-08-27T10:35:16.250Z,101351.84
2022-08-27T10:36:53.286Z,101346.41
2022-08-27T10:38:30.409Z,101344.50
2022-08-27T10:40:08.171Z,101345.44
2022-08-27T10:41:42.457Z,101341.16
2022-08-27T10:43:22.966Z,101343.28
2022-08-27T10:45:01.659Z,101344.34
2022-08-27T10:46:47.516Z,101334.56
2022-08-27T10:48:29.253Z,101338.50
2022-08-27T10:50:05.329Z,101341.41
2022-08-27T10:51:41.438Z,101341.41
2022-08-27T10:53:17.789Z,101344.38
2022-08-27T10:54:53.203Z,101344.16
2022-08-27T10:56:28.809Z,101345.97
2022-08-27T10:58:15.486Z,101341.78
2022-08-27T10:59:52.203Z,101343.03
2022-08-27T11:01:31.647Z,101340.31
2022-08-27T11:03:07.035Z,101345.72
2022-08-27T11:04:41.103Z,101345.72
2022-08-27T11:06:15.692Z,101344.56
2022-08-27T11:07:49.978Z,101340.16
2022-08-27T11:09:26.818Z,101341.78
2022-08-27T11:11:18.242Z,101336.28
2022-08-27T11:12:54.779Z,101344.44
2022-08-27T11:14:29.448Z,101341.94
2022-08-27T11:16:02.984Z,101344.78
2022-08-27T11:17:38.056Z,101339.59
2022-08-27T11:19:15.898Z,101337.47
2022-08-27T11:20:53.640Z,101341.63
2022-08-27T11:22:28.271Z,101340.56
2022-08-27T11:24:02.747Z,101337.81
2022-08-27T11:25:39.091Z,101343.50
2022-08-27T11:27:10.898Z,101335.16
2022-08-27T11:28:44.218Z,101339.16
2022-08-27T11:30:20.576Z,101337.50
2022-08-27T11:31:56.440Z,101340.13
2022-08-27T11:33:33.464Z,101333.00
2022-08-27T11:35:09.582Z,101339.63
2022-08-27T11:36:59.621Z,101336.47
2022-08-27T11:38:38.476Z,101333.06
2022-08-27T11:40:27.664Z,101329.97
2022-08-27T11:42:04.684Z,101336.59
2022-08-27T11:43:38.337Z,101333.50
2022-08-27T11:45:17.118Z,101327.78
2022-08-27T11:46:51.999Z,101331.69
2022-08-27T11:48:25.020Z,101328.31
2022-08-27T11:49:57.702Z,101328.75
2022-08-27T11:51:35.294Z,101335.25
2022-08-27T11:53:07.624Z,101330.84
2022-08-27T11:54:46.703Z,101328.31
2022-08-27T11:56:20.824Z,101322.50
2022-08-27T11:58:03.113Z,101334.75
2022-08-27T11:59:35.131Z,101323.16
2022-08-27T12:01:15.042Z,101332.56
2022-08-27T12:02:56.803Z,101326.81
2022-08-27T12:04:38.614Z,101335.72
2022-08-27T12:06:22.433Z,101332.03
2022-08-27T12:07:55.437Z,101329.88
2022-08-27T12:09:27.403Z,101329.16
2022-08-27T12:11:08.325Z,101326.06
2022-08-27T12:12:46.270Z,101317.31
2022-08-27T12:14:25.380Z,101323.53
2022-08-27T12:16:02.065Z,101323.91
2022-08-27T12:17:38.171Z,101323.38
2022-08-27T12:19:17.550Z,101322.78
2022-08-27T12:20:56.050Z,101323.50
2022-08-27T12:22:59.562Z,101320.00
2022-08-27T12:24:44.201Z,101322.44
2022-08-27T12:26:19.136Z,101321.28
2022-08-27T12:27:55.141Z,101322.19
2022-08-27T12:29:31.478Z,101329.00
2022-08-27T12:31:06.548Z,101317.03
2022-08-27T12:32:40.031Z,101322.06
2022-08-27T12:34:14.885Z,101333.44
2022-08-27T12:35:48.188Z,101326.91
2022-08-27T12:37:24.428Z,101326.28
2022-08-27T12:38:58.312Z,101325.50
2022-08-27T12:40:38.212Z,101322.03
2022-08-27T12:42:12.950Z,101323.75
2022-08-27T12:43:44.497Z,101328.59
2022-08-27T12:45:24.294Z,101322.50
2022-08-27T12:46:59.233Z,101316.31
2022-08-27T12:48:32.204Z,101321.25
2022-08-27T12:50:05.475Z,101320.81
2022-08-27T12:51:40.428Z,101315.78
2022-08-27T12:53:19.003Z,101312.72
2022-08-27T12:54:57.343Z,101310.19
2022-08-27T12:56:40.763Z,101316.06
2022-08-27T12:58:15.672Z,101314.81
2022-08-27T12:59:52.473Z,101305.22
2022-08-27T13:01:33.615Z,101309.13
2022-08-27T13:03:14.794Z,101310.09
2022-08-27T13:04:48.009Z,101308.69
2022-08-27T13:06:20.533Z,101314.88
2022-08-27T13:07:53.767Z,101307.31
2022-08-27T13:09:26.598Z,101301.56
2022-08-27T13:11:07.830Z,101304.84
2022-08-27T13:12:47.111Z,101304.63
2022-08-27T13:14:22.712Z,101302.25
2022-08-27T13:15:56.577Z,101295.06
2022-08-27T13:17:36.464Z,101298.81
2022-08-27T13:19:16.029Z,101305.03
2022-08-27T13:20:53.542Z,101304.69
2022-08-27T13:22:26.041Z,101298.09
2022-08-27T13:23:58.617Z,101302.13
2022-08-27T13:25:33.131Z,101298.56
2022-08-27T13:27:05.558Z,101294.78
2022-08-27T13:28:39.730Z,101304.69
2022-08-27T13:30:14.388Z,101307.91
2022-08-27T13:32:04.217Z,101300.88
2022-08-27T13:33:36.482Z,101299.91
2022-08-27T13:35:08.521Z,101286.81
2022-08-27T13:36:51.150Z,101303.78
2022-08-27T13:38:22.642Z,101302.72
2022-08-27T13:39:55.107Z,101287.63
2022-08-27T13:41:31.648Z,101294.31
2022-08-27T13:43:03.943Z,101284.00
2022-08-27T13:44:39.506Z,101294.06
2022-08-27T13:46:12.926Z,101293.19
2022-08-27T13:47:45.502Z,101286.19
2022-08-27T13:49:18.189Z,101289.00
2022-08-27T13:50:50.984Z,101279.38
2022-08-27T13:52:24.717Z,101281.41
2022-08-27T13:54:15.717Z,101277.69
2022-08-27T13:55:49.214Z,101286.13
2022-08-27T13:57:23.910Z,101287.19
2022-08-27T13:58:55.640Z,101288.31
2022-08-27T14:00:31.450Z,101284.13
2022-08-27T14:02:04.500Z,101283.75
2022-08-27T14:03:39.060Z,101281.72
2022-08-27T14:05:12.109Z,101283.81
2022-08-27T14:06:44.289Z,101280.88
2022-08-27T14:08:17.930Z,101279.22
2022-08-27T14:09:54.611Z,101279.41
2022-08-27T14:11:27.330Z,101286.25
2022-08-27T14:13:00.237Z,101284.28
2022-08-27T14:14:37.150Z,101280.94
2022-08-27T14:16:15.470Z,101287.09
2022-08-27T14:17:47.502Z,101284.09
2022-08-27T14:19:24.897Z,101280.19
2022-08-27T14:20:57.834Z,101282.13
2022-08-27T14:22:29.415Z,101282.22
2022-08-27T14:24:01.094Z,101291.28
2022-08-27T14:25:34.869Z,101284.69
2022-08-27T14:27:09.055Z,101283.50
2022-08-27T14:28:40.617Z,101281.41
2022-08-27T14:30:13.396Z,101280.09
2022-08-27T14:31:46.401Z,101283.28
2022-08-27T14:33:18.275Z,101275.34
2022-08-27T14:34:50.059Z,101281.31
2022-08-27T14:36:22.460Z,101282.06
2022-08-27T14:37:54.610Z,101278.97
2022-08-27T14:39:27.028Z,101280.56
2022-08-27T14:40:58.850Z,101273.47
2022-08-27T14:42:30.421Z,101272.31
2022-08-27T14:44:01.961Z,101274.72
2022-08-27T14:45:33.637Z,101274.88
2022-08-27T14:47:09.715Z,101280.53
2022-08-27T14:48:51.507Z,101274.09
2022-08-27T14:50:23.511Z,101268.84
2022-08-27T14:51:55.200Z,101276.41
2022-08-27T14:53:26.957Z,101274.81
2022-08-27T14:54:58.484Z,101279.69
2022-08-27T14:56:30.025Z,101265.94
2022-08-27T14:58:01.576Z,101277.78
2022-08-27T14:59:33.310Z,101279.47
2022-08-27T15:01:05.348Z,101274.22
2022-08-27T15:02:41.915Z,101277.78
2022-08-27T15:04:13.496Z,101274.84
2022-08-27T15:05:45.103Z,101273.50
2022-08-27T15:07:17.204Z,101281.03
2022-08-27T15:08:50.611Z,101288.81
2022-08-27T15:10:22.183Z,101282.22
2022-08-27T15:11:53.974Z,101280.75
2022-08-27T15:13:25.659Z,101279.78
2022-08-27T15:14:57.200Z,101276.84
2022-08-27T15:16:30.255Z,101276.06
2022-08-27T15:18:03.272Z,101267.94
2022-08-27T15:19:35.236Z,101279.75
2022-08-27T15:21:06.756Z,101277.94
2022-08-27T15:22:43.915Z,101277.97
2022-08-27T15:24:17.471Z,101275.31
2022-08-27T15:25:49.744Z,101272.75
2022-08-27T15:27:22.004Z,101275.84
2022-08-27T15:28:53.782Z,101273.91
2022-08-27T15:30:27.185Z,101274.59
2022-08-27T15:31:58.866Z,101275.50
2022-08-27T15:33:31.928Z,101274.34
2022-08-27T15:35:07.840Z,101271.44
2022-08-27T15:36:39.422Z,101277.38
2022-08-27T15:38:11.167Z,101280.84
2022-08-27T15:39:42.788Z,101282.22
2022-08-27T15:41:14.449Z,101275.88
2022-08-27T15:42:48.198Z,101277.50
2022-08-27T15:44:19.748Z,101274.72
2022-08-27T15:45:51.272Z,101276.94
2022-08-27T15:47:23.387Z,101276.94
2022-08-27T15:48:56.415Z,101275.94
2022-08-27T15:50:29.638Z,101275.44
2022-08-27T15:52:01.202Z,101274.59
2022-08-27T15:53:33.047Z,101272.84
2022-08-27T15:55:05.653Z,101278.06
2022-08-27T15:56:37.161Z,101274.88
2022-08-27T15:58:09.250Z,101273.91
2022-08-27T15:59:40.953Z,101275.88
2022-08-27T16:01:14.602Z,101280.09
2022-08-27T16:02:46.392Z,101276.16
2022-08-27T16:04:19.336Z,101277.38
2022-08-27T16:05:50.863Z,101274.03
2022-08-27T16:07:22.398Z,101275.88
2022-08-27T16:08:54.018Z,101271.34
2022-08-27T16:10:25.717Z,101273.53
2022-08-27T16:11:57.319Z,101275.50
2022-08-27T16:13:28.909Z,101276.97
2022-08-27T16:15:00.955Z,101273.91
2022-08-27T16:16:32.640Z,101264.84
2022-08-27T16:18:04.515Z,101275.84
2022-08-27T16:19:38.105Z,101273.53
2022-08-27T16:21:09.771Z,101266.34
2022-08-27T16:22:41.946Z,101270.72
2022-08-27T16:24:13.722Z,101273.53
2022-08-27T16:25:45.292Z,101266.72
2022-08-27T16:27:16.838Z,101270.50
2022-08-27T16:28:48.421Z,101274.44
2022-08-27T16:30:20.608Z,101272.38
2022-08-27T16:31:52.114Z,101275.91
2022-08-27T16:33:24.196Z,101276.19
2022-08-27T16:34:57.836Z,101278.63
2022-08-27T16:36:30.579Z,101274.38
2022-08-27T16:38:02.193Z,101270.13
2022-08-27T16:39:36.401Z,101280.34
2022-08-27T16:41:12.037Z,101268.16
2022-08-27T16:42:44.562Z,101279.41
2022-08-27T16:44:16.733Z,101274.16
2022-08-27T16:45:49.123Z,101276.97
2022-08-27T16:47:20.749Z,101263.66
2022-08-27T16:49:10.800Z,101270.25
2022-08-27T16:50:43.857Z,101281.34
2022-08-27T16:52:15.487Z,101269.53
2022-08-27T16:53:50.907Z,101272.31
2022-08-27T16:55:22.405Z,101270.72
2022-08-27T16:56:54.245Z,101269.78
2022-08-27T16:58:27.758Z,101269.38
2022-08-27T16:59:59.342Z,101264.03
2022-08-27T17:01:32.096Z,101273.03
2022-08-27T17:03:05.250Z,101267.44
2022-08-27T17:04:41.798Z,101271.34
2022-08-27T17:06:15.728Z,101266.91
2022-08-27T17:07:50.050Z,101272.19
2022-08-27T17:09:21.711Z,101274.09
2022-08-27T17:10:54.078Z,101263.63
2022-08-27T17:12:25.631Z,101268.13
2022-08-27T17:14:02.258Z,101265.66
2022-08-27T17:15:33.907Z,101270.28
2022-08-27T17:17:05.807Z,101269.59
2022-08-27T17:18:37.531Z,101271.53
2022-08-27T17:20:09.340Z,101268.56
2022-08-27T17:21:45.071Z,101271.97
2022-08-27T17:23:20.432Z,101268.31
2022-08-27T17:24:51.968Z,101262.72
2022-08-27T17:26:23.506Z,101274.56
2022-08-27T17:27:59.432Z,101267.03
2022-08-27T17:29:31.814Z,101268.00
2022-08-27T17:31:03.415Z,101266.06
2022-08-27T17:32:37.329Z,101271.75
2022-08-27T17:34:13.922Z,101273.34
2022-08-27T17:35:45.462Z,101265.66
2022-08-27T17:37:18.887Z,101274.22
2022-08-27T17:38:50.651Z,101272.50
2022-08-27T17:40:22.202Z,101269.28
2022-08-27T17:41:54.573Z,101270.47
2022-08-27T17:43:26.076Z,101283.03
2022-08-27T17:44:57.708Z,101276.34
2022-08-27T17:46:29.339Z,101278.91
2022-08-27T17:48:00.937Z,101286.69
2022-08-27T17:49:42.745Z,101279.25
2022-08-27T17:51:14.496Z,101287.44
2022-08-27T17:52:47.369Z,101282.91
2022-08-27T17:54:23.700Z,101285.47